Decoded Metar for KBML (BERLIN in NH, USA) (IATA:BML) | Meteo·Mobile Aviation Weather
aviador You're here:

KBML Decoded Metar

BERLIN in NH, USA
Report Time2018-08-22 04:52:00
UTC Time2018-08-22 05:37:20
Flight Rules vfr VFR
WindCalm
Visibility9999 m
Phenomena:N/A
Clouds:Few 022 Hf
Overcast 095 Hf
Expected CloudBase > 800 ft AGL from Temp-Dew spread
Ceiling9,500 ft
Temp17°C (ISA +4)
Dew Point15°C (88% RH)
QNH1013 hPa
Density Alt1,864 ft
Elevation1,132 ft
Report Wrong Elevation
Raw Report
KBML 220452Z AUTO 00000KT 10SM FEW022 OVC095 17/15 A2992 RMK AO2
SLP128 T01720150 402440094=

Extra information for KBML:More info

Metar Taf Metar & Taf Last 4 Metars F.Rules Stats Wind Profile Meteogram Temp Stats Airport Information Weather charts Add Link Nearby VenuesMetar ALERT Operation Metar Decoded Social comments

AIRNAV info for KBML